sensor_id;sensor_type;location;lat;lon;timestamp;P1;durP1;ratioP1;P2;durP2;ratioP2
10387;SDS011;5240;51.128;4.566;2024-02-26T00:00:51;2.85;;;2.15;;
10387;SDS011;5240;51.128;4.566;2024-02-26T00:03:19;3.55;;;2.20;;
10387;SDS011;5240;51.128;4.566;2024-02-26T00:05:46;3.60;;;2.13;;
10387;SDS011;5240;51.128;4.566;2024-02-26T00:08:13;3.10;;;1.90;;
10387;SDS011;5240;51.128;4.566;2024-02-26T00:10:42;2.92;;;1.80;;
10387;SDS011;5240;51.128;4.566;2024-02-26T00:13:09;7.07;;;1.92;;
10387;SDS011;5240;51.128;4.566;2024-02-26T00:15:37;2.08;;;1.88;;
10387;SDS011;5240;51.128;4.566;2024-02-26T00:18:04;2.67;;;1.73;;
10387;SDS011;5240;51.128;4.566;2024-02-26T00:20:31;4.65;;;1.95;;
10387;SDS011;5240;51.128;4.566;2024-02-26T00:22:58;2.35;;;1.90;;
10387;SDS011;5240;51.128;4.566;2024-02-26T00:25:26;3.30;;;2.10;;
10387;SDS011;5240;51.128;4.566;2024-02-26T00:27:54;3.22;;;2.10;;
10387;SDS011;5240;51.128;4.566;2024-02-26T00:30:22;3.63;;;2.00;;
10387;SDS011;5240;51.128;4.566;2024-02-26T00:32:50;2.00;;;1.80;;
10387;SDS011;5240;51.128;4.566;2024-02-26T00:35:17;2.78;;;1.80;;
10387;SDS011;5240;51.128;4.566;2024-02-26T00:37:45;2.45;;;1.90;;
10387;SDS011;5240;51.128;4.566;2024-02-26T00:40:13;2.92;;;1.98;;
10387;SDS011;5240;51.128;4.566;2024-02-26T00:42:40;2.05;;;1.85;;
10387;SDS011;5240;51.128;4.566;2024-02-26T00:45:12;2.38;;;1.75;;
10387;SDS011;5240;51.128;4.566;2024-02-26T00:47:39;2.78;;;2.10;;
10387;SDS011;5240;51.128;4.566;2024-02-26T00:50:08;2.60;;;1.80;;
10387;SDS011;5240;51.128;4.566;2024-02-26T00:52:35;2.83;;;1.90;;
10387;SDS011;5240;51.128;4.566;2024-02-26T00:55:02;1.80;;;1.70;;
10387;SDS011;5240;51.128;4.566;2024-02-26T00:57:30;2.03;;;1.80;;
10387;SDS011;5240;51.128;4.566;2024-02-26T00:59:57;2.20;;;1.60;;
10387;SDS011;5240;51.128;4.566;2024-02-26T01:02:27;4.00;;;1.80;;
10387;SDS011;5240;51.128;4.566;2024-02-26T01:04:54;2.03;;;1.77;;
10387;SDS011;5240;51.128;4.566;2024-02-26T01:07:21;1.50;;;1.40;;
10387;SDS011;5240;51.128;4.566;2024-02-26T01:09:48;1.70;;;1.60;;
10387;SDS011;5240;51.128;4.566;2024-02-26T01:12:16;2.53;;;1.70;;
10387;SDS011;5240;51.128;4.566;2024-02-26T01:14:43;2.40;;;1.80;;
10387;SDS011;5240;51.128;4.566;2024-02-26T01:17:10;1.92;;;1.70;;
10387;SDS011;5240;51.128;4.566;2024-02-26T01:19:39;2.50;;;1.83;;
10387;SDS011;5240;51.128;4.566;2024-02-26T01:22:06;2.97;;;1.95;;
10387;SDS011;5240;51.128;4.566;2024-02-26T01:24:33;3.35;;;1.90;;
10387;SDS011;5240;51.128;4.566;2024-02-26T01:27:00;4.05;;;1.95;;
10387;SDS011;5240;51.128;4.566;2024-02-26T01:29:28;3.22;;;1.77;;
10387;SDS011;5240;51.128;4.566;2024-02-26T01:31:55;2.13;;;1.60;;
10387;SDS011;5240;51.128;4.566;2024-02-26T01:34:23;2.67;;;2.00;;
10387;SDS011;5240;51.128;4.566;2024-02-26T01:36:51;3.47;;;1.90;;
10387;SDS011;5240;51.128;4.566;2024-02-26T01:39:19;3.38;;;1.80;;
10387;SDS011;5240;51.128;4.566;2024-02-26T01:41:47;3.53;;;2.42;;
10387;SDS011;5240;51.128;4.566;2024-02-26T01:44:14;2.78;;;2.00;;
10387;SDS011;5240;51.128;4.566;2024-02-26T01:46:42;3.35;;;2.20;;
10387;SDS011;5240;51.128;4.566;2024-02-26T01:49:09;5.50;;;2.42;;
10387;SDS011;5240;51.128;4.566;2024-02-26T01:51:38;4.80;;;2.25;;
10387;SDS011;5240;51.128;4.566;2024-02-26T01:54:08;2.53;;;1.95;;
10387;SDS011;5240;51.128;4.566;2024-02-26T01:56:36;2.50;;;2.28;;
10387;SDS011;5240;51.128;4.566;2024-02-26T01:59:03;3.50;;;2.65;;
10387;SDS011;5240;51.128;4.566;2024-02-26T02:01:31;2.60;;;2.35;;
10387;SDS011;5240;51.128;4.566;2024-02-26T02:03:59;3.05;;;2.40;;
10387;SDS011;5240;51.128;4.566;2024-02-26T02:06:26;3.08;;;2.63;;
10387;SDS011;5240;51.128;4.566;2024-02-26T02:08:54;4.43;;;2.75;;
10387;SDS011;5240;51.128;4.566;2024-02-26T02:11:22;5.00;;;3.10;;
10387;SDS011;5240;51.128;4.566;2024-02-26T02:13:50;3.00;;;2.70;;
10387;SDS011;5240;51.128;4.566;2024-02-26T02:16:18;5.50;;;3.00;;
10387;SDS011;5240;51.128;4.566;2024-02-26T02:18:45;3.90;;;2.80;;
10387;SDS011;5240;51.128;4.566;2024-02-26T02:21:14;4.90;;;2.78;;
10387;SDS011;5240;51.128;4.566;2024-02-26T02:23:41;2.90;;;2.60;;
10387;SDS011;5240;51.128;4.566;2024-02-26T02:26:11;2.83;;;2.33;;
10387;SDS011;5240;51.128;4.566;2024-02-26T02:28:38;4.95;;;2.90;;
10387;SDS011;5240;51.128;4.566;2024-02-26T02:31:06;3.53;;;2.80;;
10387;SDS011;5240;51.128;4.566;2024-02-26T02:33:34;5.03;;;2.90;;
10387;SDS011;5240;51.128;4.566;2024-02-26T02:36:01;3.40;;;3.10;;
10387;SDS011;5240;51.128;4.566;2024-02-26T02:38:30;4.10;;;3.47;;
10387;SDS011;5240;51.128;4.566;2024-02-26T02:40:59;4.15;;;3.05;;
10387;SDS011;5240;51.128;4.566;2024-02-26T02:43:26;3.67;;;3.08;;
10387;SDS011;5240;51.128;4.566;2024-02-26T02:45:53;4.85;;;2.97;;
10387;SDS011;5240;51.128;4.566;2024-02-26T02:48:20;3.63;;;3.22;;
10387;SDS011;5240;51.128;4.566;2024-02-26T02:50:48;3.88;;;3.55;;
10387;SDS011;5240;51.128;4.566;2024-02-26T02:53:15;5.25;;;3.58;;
10387;SDS011;5240;51.128;4.566;2024-02-26T02:55:44;5.47;;;3.75;;
10387;SDS011;5240;51.128;4.566;2024-02-26T02:58:12;4.28;;;3.85;;
10387;SDS011;5240;51.128;4.566;2024-02-26T03:00:39;5.35;;;3.85;;
10387;SDS011;5240;51.128;4.566;2024-02-26T03:03:06;4.88;;;3.80;;
10387;SDS011;5240;51.128;4.566;2024-02-26T03:05:33;4.93;;;4.30;;
10387;SDS011;5240;51.128;4.566;2024-02-26T03:08:01;4.20;;;3.72;;
10387;SDS011;5240;51.128;4.566;2024-02-26T03:10:28;4.50;;;3.90;;
10387;SDS011;5240;51.128;4.566;2024-02-26T03:12:57;6.97;;;4.25;;
10387;SDS011;5240;51.128;4.566;2024-02-26T03:15:24;5.85;;;4.10;;
10387;SDS011;5240;51.128;4.566;2024-02-26T03:17:51;5.05;;;4.15;;
10387;SDS011;5240;51.128;4.566;2024-02-26T03:20:19;5.65;;;4.75;;
10387;SDS011;5240;51.128;4.566;2024-02-26T03:22:46;5.22;;;4.35;;
10387;SDS011;5240;51.128;4.566;2024-02-26T03:25:13;5.38;;;4.88;;
10387;SDS011;5240;51.128;4.566;2024-02-26T03:27:40;5.40;;;4.70;;
10387;SDS011;5240;51.128;4.566;2024-02-26T03:30:09;5.53;;;4.97;;
10387;SDS011;5240;51.128;4.566;2024-02-26T03:32:37;7.80;;;4.95;;
10387;SDS011;5240;51.128;4.566;2024-02-26T03:35:04;6.78;;;5.97;;
10387;SDS011;5240;51.128;4.566;2024-02-26T03:37:32;6.45;;;5.38;;
10387;SDS011;5240;51.128;4.566;2024-02-26T03:39:59;6.68;;;5.05;;
10387;SDS011;5240;51.128;4.566;2024-02-26T03:42:28;6.05;;;5.45;;
10387;SDS011;5240;51.128;4.566;2024-02-26T03:44:54;7.43;;;6.05;;
10387;SDS011;5240;51.128;4.566;2024-02-26T03:47:23;7.85;;;6.07;;
10387;SDS011;5240;51.128;4.566;2024-02-26T03:49:50;8.63;;;6.45;;
10387;SDS011;5240;51.128;4.566;2024-02-26T03:52:17;6.95;;;6.35;;
10387;SDS011;5240;51.128;4.566;2024-02-26T03:54:45;8.15;;;6.93;;
10387;SDS011;5240;51.128;4.566;2024-02-26T03:57:12;9.20;;;6.78;;
10387;SDS011;5240;51.128;4.566;2024-02-26T03:59:39;7.88;;;6.85;;
10387;SDS011;5240;51.128;4.566;2024-02-26T04:02:06;9.30;;;7.57;;
10387;SDS011;5240;51.128;4.566;2024-02-26T04:04:36;7.80;;;7.00;;
10387;SDS011;5240;51.128;4.566;2024-02-26T04:07:03;8.27;;;7.22;;
10387;SDS011;5240;51.128;4.566;2024-02-26T04:09:30;8.13;;;7.20;;
10387;SDS011;5240;51.128;4.566;2024-02-26T04:11:58;8.50;;;7.22;;
10387;SDS011;5240;51.128;4.566;2024-02-26T04:14:25;8.32;;;7.53;;
10387;SDS011;5240;51.128;4.566;2024-02-26T04:16:52;7.53;;;6.70;;
10387;SDS011;5240;51.128;4.566;2024-02-26T04:19:20;8.30;;;6.70;;
10387;SDS011;5240;51.128;4.566;2024-02-26T04:21:48;7.80;;;6.72;;
10387;SDS011;5240;51.128;4.566;2024-02-26T04:24:16;9.23;;;6.82;;
10387;SDS011;5240;51.128;4.566;2024-02-26T04:26:43;7.80;;;6.75;;
10387;SDS011;5240;51.128;4.566;2024-02-26T04:29:10;9.32;;;7.13;;
10387;SDS011;5240;51.128;4.566;2024-02-26T04:31:37;8.93;;;7.65;;
10387;SDS011;5240;51.128;4.566;2024-02-26T04:34:05;7.28;;;6.55;;
10387;SDS011;5240;51.128;4.566;2024-02-26T04:36:32;7.15;;;6.45;;
10387;SDS011;5240;51.128;4.566;2024-02-26T04:39:01;6.80;;;6.18;;
10387;SDS011;5240;51.128;4.566;2024-02-26T04:41:28;8.27;;;6.65;;
10387;SDS011;5240;51.128;4.566;2024-02-26T04:43:56;7.75;;;6.68;;
10387;SDS011;5240;51.128;4.566;2024-02-26T04:46:23;8.05;;;6.65;;
10387;SDS011;5240;51.128;4.566;2024-02-26T04:48:50;7.85;;;6.75;;
10387;SDS011;5240;51.128;4.566;2024-02-26T04:51:17;7.53;;;6.80;;
10387;SDS011;5240;51.128;4.566;2024-02-26T04:53:45;7.60;;;6.80;;
10387;SDS011;5240;51.128;4.566;2024-02-26T04:56:14;7.15;;;6.10;;
10387;SDS011;5240;51.128;4.566;2024-02-26T04:58:41;6.57;;;5.75;;
10387;SDS011;5240;51.128;4.566;2024-02-26T05:01:08;6.60;;;6.00;;
10387;SDS011;5240;51.128;4.566;2024-02-26T05:03:36;6.80;;;6.10;;
10387;SDS011;5240;51.128;4.566;2024-02-26T05:06:03;7.15;;;6.15;;
10387;SDS011;5240;51.128;4.566;2024-02-26T05:08:31;6.68;;;6.07;;
10387;SDS011;5240;51.128;4.566;2024-02-26T05:11:00;7.00;;;5.85;;
10387;SDS011;5240;51.128;4.566;2024-02-26T05:13:30;6.30;;;5.53;;
10387;SDS011;5240;51.128;4.566;2024-02-26T05:15:57;7.88;;;5.85;;
10387;SDS011;5240;51.128;4.566;2024-02-26T05:18:25;7.25;;;5.63;;
10387;SDS011;5240;51.128;4.566;2024-02-26T05:20:52;6.90;;;5.60;;
10387;SDS011;5240;51.128;4.566;2024-02-26T05:23:19;6.80;;;5.15;;
10387;SDS011;5240;51.128;4.566;2024-02-26T05:25:48;6.82;;;6.00;;
10387;SDS011;5240;51.128;4.566;2024-02-26T05:28:15;6.38;;;5.70;;
10387;SDS011;5240;51.128;4.566;2024-02-26T05:30:46;5.72;;;5.15;;
10387;SDS011;5240;51.128;4.566;2024-02-26T05:33:14;7.15;;;5.38;;
10387;SDS011;5240;51.128;4.566;2024-02-26T05:35:41;6.20;;;5.13;;
10387;SDS011;5240;51.128;4.566;2024-02-26T05:38:08;6.50;;;5.30;;
10387;SDS011;5240;51.128;4.566;2024-02-26T05:40:36;6.50;;;5.18;;
10387;SDS011;5240;51.128;4.566;2024-02-26T05:43:03;6.30;;;5.70;;
10387;SDS011;5240;51.128;4.566;2024-02-26T05:45:31;5.97;;;4.93;;
10387;SDS011;5240;51.128;4.566;2024-02-26T05:48:00;6.28;;;5.05;;
10387;SDS011;5240;51.128;4.566;2024-02-26T05:50:28;6.32;;;5.72;;
10387;SDS011;5240;51.128;4.566;2024-02-26T05:52:55;5.57;;;5.07;;
10387;SDS011;5240;51.128;4.566;2024-02-26T05:55:22;6.68;;;5.78;;
10387;SDS011;5240;51.128;4.566;2024-02-26T05:57:50;5.50;;;5.00;;
10387;SDS011;5240;51.128;4.566;2024-02-26T06:00:17;6.10;;;5.47;;
10387;SDS011;5240;51.128;4.566;2024-02-26T06:02:44;5.95;;;5.45;;
10387;SDS011;5240;51.128;4.566;2024-02-26T06:05:13;6.22;;;5.60;;
10387;SDS011;5240;51.128;4.566;2024-02-26T06:07:43;5.97;;;5.38;;
10387;SDS011;5240;51.128;4.566;2024-02-26T06:10:11;6.57;;;5.43;;
10387;SDS011;5240;51.128;4.566;2024-02-26T06:12:39;5.80;;;5.30;;
10387;SDS011;5240;51.128;4.566;2024-02-26T06:15:07;5.78;;;5.13;;
10387;SDS011;5240;51.128;4.566;2024-02-26T06:17:34;7.07;;;5.40;;
10387;SDS011;5240;51.128;4.566;2024-02-26T06:20:02;6.90;;;5.18;;
10387;SDS011;5240;51.128;4.566;2024-02-26T06:22:32;6.28;;;5.65;;
10387;SDS011;5240;51.128;4.566;2024-02-26T06:25:00;6.07;;;5.45;;
10387;SDS011;5240;51.128;4.566;2024-02-26T06:27:27;6.43;;;5.82;;
10387;SDS011;5240;51.128;4.566;2024-02-26T06:29:54;7.13;;;6.07;;
10387;SDS011;5240;51.128;4.566;2024-02-26T06:32:22;8.00;;;6.15;;
10387;SDS011;5240;51.128;4.566;2024-02-26T06:34:49;6.57;;;5.65;;
10387;SDS011;5240;51.128;4.566;2024-02-26T06:37:16;6.63;;;5.95;;
10387;SDS011;5240;51.128;4.566;2024-02-26T06:39:45;6.82;;;6.15;;
10387;SDS011;5240;51.128;4.566;2024-02-26T06:42:12;7.13;;;5.32;;
10387;SDS011;5240;51.128;4.566;2024-02-26T06:44:39;6.20;;;5.60;;
10387;SDS011;5240;51.128;4.566;2024-02-26T06:47:07;6.30;;;5.70;;
10387;SDS011;5240;51.128;4.566;2024-02-26T06:49:34;5.95;;;5.35;;
10387;SDS011;5240;51.128;4.566;2024-02-26T06:52:01;7.30;;;5.25;;
10387;SDS011;5240;51.128;4.566;2024-02-26T06:54:29;6.50;;;5.78;;
10387;SDS011;5240;51.128;4.566;2024-02-26T06:56:58;7.35;;;5.38;;
10387;SDS011;5240;51.128;4.566;2024-02-26T06:59:25;7.05;;;5.20;;
10387;SDS011;5240;51.128;4.566;2024-02-26T07:01:52;5.43;;;4.95;;
10387;SDS011;5240;51.128;4.566;2024-02-26T07:04:20;5.97;;;5.10;;
10387;SDS011;5240;51.128;4.566;2024-02-26T07:06:48;5.97;;;5.40;;
10387;SDS011;5240;51.128;4.566;2024-02-26T07:09:15;7.93;;;4.90;;
10387;SDS011;5240;51.128;4.566;2024-02-26T07:11:42;5.45;;;4.93;;
10387;SDS011;5240;51.128;4.566;2024-02-26T07:14:11;6.22;;;5.60;;
10387;SDS011;5240;51.128;4.566;2024-02-26T07:16:39;6.07;;;5.47;;
10387;SDS011;5240;51.128;4.566;2024-02-26T07:19:07;5.68;;;5.18;;
10387;SDS011;5240;51.128;4.566;2024-02-26T07:21:34;6.38;;;5.53;;
10387;SDS011;5240;51.128;4.566;2024-02-26T07:24:02;5.78;;;5.13;;
10387;SDS011;5240;51.128;4.566;2024-02-26T07:26:29;5.78;;;5.18;;
10387;SDS011;5240;51.128;4.566;2024-02-26T07:28:57;6.65;;;5.53;;
10387;SDS011;5240;51.128;4.566;2024-02-26T07:31:28;5.43;;;4.93;;
10387;SDS011;5240;51.128;4.566;2024-02-26T07:34:00;5.55;;;5.07;;
10387;SDS011;5240;51.128;4.566;2024-02-26T07:36:28;5.70;;;5.20;;
10387;SDS011;5240;51.128;4.566;2024-02-26T07:38:56;5.60;;;5.10;;
10387;SDS011;5240;51.128;4.566;2024-02-26T07:41:24;6.90;;;5.68;;
10387;SDS011;5240;51.128;4.566;2024-02-26T07:44:05;8.23;;;6.35;;
10387;SDS011;5240;51.128;4.566;2024-02-26T07:52:22;6.65;;;5.60;;
10387;SDS011;5240;51.128;4.566;2024-02-26T07:54:50;6.15;;;5.63;;
10387;SDS011;5240;51.128;4.566;2024-02-26T07:57:18;6.30;;;5.38;;
10387;SDS011;5240;51.128;4.566;2024-02-26T07:59:46;6.15;;;5.55;;
10387;SDS011;5240;51.128;4.566;2024-02-26T08:02:14;6.78;;;5.47;;
10387;SDS011;5240;51.128;4.566;2024-02-26T08:04:42;6.90;;;5.78;;
10387;SDS011;5240;51.128;4.566;2024-02-26T08:07:10;7.72;;;6.03;;
10387;SDS011;5240;51.128;4.566;2024-02-26T08:09:39;8.13;;;5.95;;
10387;SDS011;5240;51.128;4.566;2024-02-26T08:12:07;6.22;;;5.63;;
10387;SDS011;5240;51.128;4.566;2024-02-26T08:25:39;5.57;;;5.10;;
10387;SDS011;5240;51.128;4.566;2024-02-26T08:28:06;6.68;;;6.07;;
10387;SDS011;5240;51.128;4.566;2024-02-26T08:30:36;6.43;;;5.82;;
10387;SDS011;5240;51.128;4.566;2024-02-26T08:33:06;7.25;;;6.55;;
10387;SDS011;5240;51.128;4.566;2024-02-26T08:35:33;6.78;;;5.82;;
10387;SDS011;5240;51.128;4.566;2024-02-26T08:38:01;7.70;;;6.93;;
10387;SDS011;5240;51.128;4.566;2024-02-26T08:40:28;7.10;;;6.47;;
10387;SDS011;5240;51.128;4.566;2024-02-26T08:42:57;7.35;;;6.65;;
10387;SDS011;5240;51.128;4.566;2024-02-26T08:45:24;10.32;;;6.78;;
10387;SDS011;5240;51.128;4.566;2024-02-26T08:47:52;7.15;;;6.45;;
10387;SDS011;5240;51.128;4.566;2024-02-26T08:50:20;7.68;;;6.75;;
10387;SDS011;5240;51.128;4.566;2024-02-26T08:52:47;6.78;;;6.07;;
10387;SDS011;5240;51.128;4.566;2024-02-26T08:55:16;7.43;;;6.65;;
10387;SDS011;5240;51.128;4.566;2024-02-26T08:57:43;7.35;;;6.25;;
10387;SDS011;5240;51.128;4.566;2024-02-26T09:00:15;10.23;;;6.80;;
10387;SDS011;5240;51.128;4.566;2024-02-26T09:02:45;8.25;;;6.30;;
10387;SDS011;5240;51.128;4.566;2024-02-26T09:05:15;6.93;;;5.63;;
10387;SDS011;5240;51.128;4.566;2024-02-26T09:07:44;7.55;;;6.30;;
10387;SDS011;5240;51.128;4.566;2024-02-26T09:10:11;7.15;;;6.50;;
10387;SDS011;5240;51.128;4.566;2024-02-26T09:12:39;7.20;;;6.30;;
10387;SDS011;5240;51.128;4.566;2024-02-26T09:15:07;6.53;;;5.93;;
10387;SDS011;5240;51.128;4.566;2024-02-26T09:17:37;7.82;;;6.35;;
10387;SDS011;5240;51.128;4.566;2024-02-26T09:20:05;7.30;;;6.03;;
10387;SDS011;5240;51.128;4.566;2024-02-26T09:22:34;8.27;;;6.05;;
10387;SDS011;5240;51.128;4.566;2024-02-26T09:25:03;8.98;;;5.82;;
10387;SDS011;5240;51.128;4.566;2024-02-26T09:27:31;7.10;;;5.50;;
10387;SDS011;5240;51.128;4.566;2024-02-26T09:32:37;6.00;;;5.38;;
10387;SDS011;5240;51.128;4.566;2024-02-26T09:35:04;5.63;;;5.03;;
10387;SDS011;5240;51.128;4.566;2024-02-26T09:37:32;5.57;;;4.82;;
10387;SDS011;5240;51.128;4.566;2024-02-26T09:40:02;6.05;;;5.50;;
10387;SDS011;5240;51.128;4.566;2024-02-26T09:42:29;5.88;;;5.28;;
10387;SDS011;5240;51.128;4.566;2024-02-26T09:44:59;8.50;;;5.40;;
10387;SDS011;5240;51.128;4.566;2024-02-26T09:47:29;6.28;;;5.57;;
10387;SDS011;5240;51.128;4.566;2024-02-26T09:50:00;5.60;;;5.10;;
10387;SDS011;5240;51.128;4.566;2024-02-26T09:52:29;6.60;;;5.78;;
10387;SDS011;5240;51.128;4.566;2024-02-26T09:54:58;6.85;;;5.82;;
10387;SDS011;5240;51.128;4.566;2024-02-26T09:57:25;11.05;;;5.28;;
10387;SDS011;5240;51.128;4.566;2024-02-26T09:59:53;6.82;;;5.10;;
10387;SDS011;5240;51.128;4.566;2024-02-26T10:02:21;5.90;;;5.20;;
10387;SDS011;5240;51.128;4.566;2024-02-26T10:04:48;6.63;;;5.13;;
10387;SDS011;5240;51.128;4.566;2024-02-26T10:07:20;6.60;;;5.40;;
10387;SDS011;5240;51.128;4.566;2024-02-26T10:09:47;5.53;;;5.03;;
10387;SDS011;5240;51.128;4.566;2024-02-26T10:12:15;5.95;;;5.38;;
10387;SDS011;5240;51.128;4.566;2024-02-26T10:14:43;7.07;;;5.90;;
10387;SDS011;5240;51.128;4.566;2024-02-26T10:17:10;5.72;;;5.22;;
10387;SDS011;5240;51.128;4.566;2024-02-26T10:19:38;8.38;;;5.82;;
10387;SDS011;5240;51.128;4.566;2024-02-26T10:22:06;7.00;;;6.30;;
10387;SDS011;5240;51.128;4.566;2024-02-26T10:24:36;7.10;;;6.00;;
10387;SDS011;5240;51.128;4.566;2024-02-26T10:27:03;7.25;;;6.53;;
10387;SDS011;5240;51.128;4.566;2024-02-26T10:29:32;7.13;;;6.50;;
10387;SDS011;5240;51.128;4.566;2024-02-26T10:31:59;7.20;;;6.32;;
10387;SDS011;5240;51.128;4.566;2024-02-26T10:34:27;7.32;;;6.47;;
10387;SDS011;5240;51.128;4.566;2024-02-26T10:36:55;8.00;;;6.70;;
10387;SDS011;5240;51.128;4.566;2024-02-26T10:39:22;7.22;;;6.45;;
10387;SDS011;5240;51.128;4.566;2024-02-26T10:41:51;6.43;;;5.82;;
10387;SDS011;5240;51.128;4.566;2024-02-26T10:44:19;6.93;;;6.20;;
10387;SDS011;5240;51.128;4.566;2024-02-26T10:46:47;7.90;;;6.43;;
10387;SDS011;5240;51.128;4.566;2024-02-26T10:49:15;7.70;;;6.22;;
10387;SDS011;5240;51.128;4.566;2024-02-26T10:51:45;7.85;;;6.97;;
10387;SDS011;5240;51.128;4.566;2024-02-26T10:54:16;6.57;;;5.97;;
10387;SDS011;5240;51.128;4.566;2024-02-26T10:59:23;6.60;;;5.93;;
10387;SDS011;5240;51.128;4.566;2024-02-26T11:01:51;6.95;;;6.25;;
10387;SDS011;5240;51.128;4.566;2024-02-26T11:04:20;7.93;;;6.95;;
10387;SDS011;5240;51.128;4.566;2024-02-26T11:06:50;6.93;;;6.30;;
10387;SDS011;5240;51.128;4.566;2024-02-26T11:09:18;6.28;;;5.68;;
10387;SDS011;5240;51.128;4.566;2024-02-26T11:11:48;11.48;;;6.47;;
10387;SDS011;5240;51.128;4.566;2024-02-26T11:14:19;7.03;;;6.43;;
10387;SDS011;5240;51.128;4.566;2024-02-26T11:16:49;8.40;;;6.78;;
10387;SDS011;5240;51.128;4.566;2024-02-26T11:19:16;7.05;;;5.97;;
10387;SDS011;5240;51.128;4.566;2024-02-26T11:21:44;6.95;;;6.22;;
10387;SDS011;5240;51.128;4.566;2024-02-26T11:24:12;6.47;;;5.88;;
10387;SDS011;5240;51.128;4.566;2024-02-26T11:26:42;6.85;;;6.15;;
10387;SDS011;5240;51.128;4.566;2024-02-26T11:29:12;6.35;;;5.60;;
10387;SDS011;5240;51.128;4.566;2024-02-26T11:31:41;6.10;;;5.38;;
10387;SDS011;5240;51.128;4.566;2024-02-26T11:34:09;5.95;;;5.35;;
10387;SDS011;5240;51.128;4.566;2024-02-26T11:36:38;6.18;;;5.25;;
10387;SDS011;5240;51.128;4.566;2024-02-26T11:39:07;5.53;;;4.97;;
10387;SDS011;5240;51.128;4.566;2024-02-26T11:41:36;5.60;;;5.05;;
10387;SDS011;5240;51.128;4.566;2024-02-26T11:44:03;6.05;;;5.10;;
10387;SDS011;5240;51.128;4.566;2024-02-26T11:46:32;5.32;;;4.82;;
10387;SDS011;5240;51.128;4.566;2024-02-26T11:49:02;6.20;;;5.15;;
10387;SDS011;5240;51.128;4.566;2024-02-26T11:51:34;5.60;;;5.10;;
10387;SDS011;5240;51.128;4.566;2024-02-26T11:54:02;6.32;;;5.32;;
10387;SDS011;5240;51.128;4.566;2024-02-26T11:56:33;8.57;;;5.20;;
10387;SDS011;5240;51.128;4.566;2024-02-26T11:59:03;7.72;;;5.57;;
10387;SDS011;5240;51.128;4.566;2024-02-26T12:01:41;5.50;;;5.00;;
10387;SDS011;5240;51.128;4.566;2024-02-26T12:04:13;5.80;;;5.30;;
10387;SDS011;5240;51.128;4.566;2024-02-26T12:06:43;6.47;;;5.88;;
10387;SDS011;5240;51.128;4.566;2024-02-26T12:09:12;8.40;;;6.20;;
10387;SDS011;5240;51.128;4.566;2024-02-26T12:11:39;7.22;;;6.38;;
10387;SDS011;5240;51.128;4.566;2024-02-26T12:14:07;7.90;;;6.90;;
10387;SDS011;5240;51.128;4.566;2024-02-26T12:16:35;7.20;;;6.53;;
10387;SDS011;5240;51.128;4.566;2024-02-26T12:19:06;7.82;;;7.03;;
10387;SDS011;5240;51.128;4.566;2024-02-26T12:21:34;8.63;;;6.50;;
10387;SDS011;5240;51.128;4.566;2024-02-26T12:24:13;7.95;;;7.15;;
10387;SDS011;5240;51.128;4.566;2024-02-26T12:26:41;8.98;;;7.05;;
10387;SDS011;5240;51.128;4.566;2024-02-26T12:29:08;7.78;;;6.90;;
10387;SDS011;5240;51.128;4.566;2024-02-26T12:31:36;7.88;;;7.07;;
10387;SDS011;5240;51.128;4.566;2024-02-26T12:34:04;6.93;;;6.22;;
10387;SDS011;5240;51.128;4.566;2024-02-26T12:36:32;6.85;;;6.15;;
10387;SDS011;5240;51.128;4.566;2024-02-26T12:39:01;7.63;;;6.82;;
10387;SDS011;5240;51.128;4.566;2024-02-26T12:41:32;7.80;;;6.55;;
10387;SDS011;5240;51.128;4.566;2024-02-26T12:44:00;7.55;;;6.85;;
10387;SDS011;5240;51.128;4.566;2024-02-26T12:46:27;8.02;;;7.20;;
10387;SDS011;5240;51.128;4.566;2024-02-26T12:48:56;7.00;;;6.13;;
10387;SDS011;5240;51.128;4.566;2024-02-26T12:51:24;8.20;;;7.35;;
10387;SDS011;5240;51.128;4.566;2024-02-26T12:53:55;8.52;;;7.43;;
10387;SDS011;5240;51.128;4.566;2024-02-26T13:07:05;7.70;;;6.65;;
10387;SDS011;5240;51.128;4.566;2024-02-26T13:09:32;7.90;;;7.00;;
10387;SDS011;5240;51.128;4.566;2024-02-26T13:12:03;8.68;;;7.28;;
10387;SDS011;5240;51.128;4.566;2024-02-26T13:14:30;8.82;;;7.50;;
10387;SDS011;5240;51.128;4.566;2024-02-26T13:16:59;9.35;;;7.75;;
10387;SDS011;5240;51.128;4.566;2024-02-26T13:19:26;11.20;;;7.80;;
10387;SDS011;5240;51.128;4.566;2024-02-26T13:21:54;9.65;;;6.90;;
10387;SDS011;5240;51.128;4.566;2024-02-26T13:24:23;9.15;;;7.38;;
10387;SDS011;5240;51.128;4.566;2024-02-26T13:26:53;10.55;;;7.75;;
10387;SDS011;5240;51.128;4.566;2024-02-26T13:29:21;8.73;;;7.25;;
10387;SDS011;5240;51.128;4.566;2024-02-26T13:31:53;7.78;;;6.35;;
10387;SDS011;5240;51.128;4.566;2024-02-26T13:34:24;7.72;;;6.50;;
10387;SDS011;5240;51.128;4.566;2024-02-26T13:36:53;10.57;;;6.93;;
10387;SDS011;5240;51.128;4.566;2024-02-26T13:39:23;8.70;;;6.80;;
10387;SDS011;5240;51.128;4.566;2024-02-26T13:44:27;7.57;;;6.65;;
10387;SDS011;5240;51.128;4.566;2024-02-26T13:46:55;7.57;;;6.60;;
10387;SDS011;5240;51.128;4.566;2024-02-26T13:49:22;9.00;;;7.07;;
10387;SDS011;5240;51.128;4.566;2024-02-26T13:51:50;10.68;;;8.18;;
10387;SDS011;5240;51.128;4.566;2024-02-26T13:54:19;9.40;;;7.05;;
10387;SDS011;5240;51.128;4.566;2024-02-26T13:56:48;7.68;;;6.85;;
10387;SDS011;5240;51.128;4.566;2024-02-26T13:59:15;9.95;;;7.95;;
10387;SDS011;5240;51.128;4.566;2024-02-26T14:01:43;10.73;;;8.18;;
10387;SDS011;5240;51.128;4.566;2024-02-26T14:04:10;9.02;;;7.53;;
10387;SDS011;5240;51.128;4.566;2024-02-26T14:06:37;9.65;;;8.13;;
10387;SDS011;5240;51.128;4.566;2024-02-26T14:09:06;9.82;;;7.65;;
10387;SDS011;5240;51.128;4.566;2024-02-26T14:11:34;9.15;;;8.23;;
10387;SDS011;5240;51.128;4.566;2024-02-26T14:14:03;8.40;;;7.00;;
10387;SDS011;5240;51.128;4.566;2024-02-26T14:16:30;9.93;;;7.57;;
10387;SDS011;5240;51.128;4.566;2024-02-26T14:18:58;9.70;;;8.07;;
10387;SDS011;5240;51.128;4.566;2024-02-26T14:21:25;9.50;;;7.97;;
10387;SDS011;5240;51.128;4.566;2024-02-26T14:23:52;9.95;;;6.95;;
10387;SDS011;5240;51.128;4.566;2024-02-26T14:26:20;9.55;;;7.32;;
10387;SDS011;5240;51.128;4.566;2024-02-26T14:28:48;8.32;;;6.40;;
10387;SDS011;5240;51.128;4.566;2024-02-26T14:31:18;7.65;;;6.72;;
10387;SDS011;5240;51.128;4.566;2024-02-26T14:33:45;7.68;;;6.88;;
10387;SDS011;5240;51.128;4.566;2024-02-26T14:36:13;8.43;;;6.80;;
10387;SDS011;5240;51.128;4.566;2024-02-26T14:38:40;8.48;;;7.18;;
10387;SDS011;5240;51.128;4.566;2024-02-26T14:41:07;8.10;;;7.05;;
10387;SDS011;5240;51.128;4.566;2024-02-26T14:43:36;8.63;;;7.07;;
10387;SDS011;5240;51.128;4.566;2024-02-26T14:51:30;6.50;;;5.90;;
10387;SDS011;5240;51.128;4.566;2024-02-26T14:53:57;7.50;;;6.70;;
10387;SDS011;5240;51.128;4.566;2024-02-26T14:56:27;8.52;;;6.47;;
10387;SDS011;5240;51.128;4.566;2024-02-26T14:58:54;7.20;;;5.65;;
10387;SDS011;5240;51.128;4.566;2024-02-26T15:01:22;6.93;;;5.78;;
10387;SDS011;5240;51.128;4.566;2024-02-26T15:03:50;6.53;;;5.45;;
10387;SDS011;5240;51.128;4.566;2024-02-26T15:06:17;6.95;;;6.00;;
10387;SDS011;5240;51.128;4.566;2024-02-26T15:08:46;7.65;;;6.28;;
10387;SDS011;5240;51.128;4.566;2024-02-26T15:11:14;6.93;;;6.22;;
10387;SDS011;5240;51.128;4.566;2024-02-26T15:13:41;6.70;;;6.03;;
10387;SDS011;5240;51.128;4.566;2024-02-26T15:18:44;6.38;;;5.75;;
10387;SDS011;5240;51.128;4.566;2024-02-26T15:21:11;7.65;;;6.40;;
10387;SDS011;5240;51.128;4.566;2024-02-26T15:23:39;7.30;;;6.40;;
10387;SDS011;5240;51.128;4.566;2024-02-26T15:26:08;7.80;;;6.63;;
10387;SDS011;5240;51.128;4.566;2024-02-26T15:28:35;7.22;;;6.53;;
10387;SDS011;5240;51.128;4.566;2024-02-26T15:31:03;8.57;;;6.75;;
10387;SDS011;5240;51.128;4.566;2024-02-26T15:33:32;7.75;;;6.25;;
10387;SDS011;5240;51.128;4.566;2024-02-26T15:36:00;8.05;;;6.28;;
10387;SDS011;5240;51.128;4.566;2024-02-26T15:38:27;7.13;;;5.93;;
10387;SDS011;5240;51.128;4.566;2024-02-26T15:40:55;7.40;;;6.35;;
10387;SDS011;5240;51.128;4.566;2024-02-26T15:43:24;7.20;;;6.13;;
10387;SDS011;5240;51.128;4.566;2024-02-26T15:45:51;7.55;;;6.75;;
10387;SDS011;5240;51.128;4.566;2024-02-26T15:48:18;7.95;;;6.57;;